Columbus, OH

10:10 AM EDT on July 23, 2017 (GMT -0400)
Worthington Wilson Hill | | Change Station

Elev 902 ft 40.10 °N, 83.01 °W | Updated 21 seconds ago

Light Thunderstorms and Rain
Light Thunderstorm Rain Mist
72.6 °F
Feels Like 72.6 °F
N
2.0
Wind Variable Wind from South

Today
High -- | Low -- °F
--% Chance of Precip.
Yesterday
High -- | Low -- °F
Precip. -- in
Pressure 29.84 in
Visibility 5.0 miles
Clouds Mostly Cloudy 1000 ft
Mostly Cloudy 2100 ft
Overcast 3500 ft
Dew Point 72 °F
Humidity 98%
Rainfall 0.18 in
Snow Depth Not available.
6:22 AM 8:54 PM
New Moon, 0% visible
SPECI KOSU 231402Z 27007KT 5SM -TSRA BR BKN010 BKN021 OVC035 23/23 A2984 RMK AO2 LTG DSNT SE TSB1356 P0003 T02280228
Pressure 29.84 in
Visibility 5.0 miles
Clouds Mostly Cloudy 1000 ft
Mostly Cloudy 2100 ft
Overcast 3500 ft
Dew Point 72 °F
Humidity 98%
Rainfall 0.18 in
Snow Depth Not available.
6:22 AM 8:54 PM
New Moon, 0% visible
SPECI KOSU 231402Z 27007KT 5SM -TSRA BR BKN010 BKN021 OVC035 23/23 A2984 RMK AO2 LTG DSNT SE TSB1356 P0003 T02280228

Get Severe Weather Alerts

Thanks for signing up!

Be on the lookout for a verification email in your inbox.

You'll start receiving the daily forecast at 6 AM.

×

10-Day Weather Forecast

Almanac

Astronomy

Jul. 23, 2017 Rise Set
Actual Time
Civil Twilight
Nautical Twilight
Astronomical Twilight
Moon
Length of Visible Light
Length of Day
Tomorrow will be .
, % of the Moon is Illuminated

Today's Extremes

State Highs State Lows

Community

WunderPhotos

Category 6

Welcome to Category 6. This is the collective home for Weather Underground's featured writeups by Dr. Jeff Masters (right), Bob Henson (left), Chris Burt, and other regular contributors.

Nearby

Air Quality

  Air Quality AQ Index Pollutant
Not available.

Snow Depth

Station Depth Elevation

Earthquake Activity

City Distance Mag. Time & Date
Minimum magnitude displayed is 2.5.

Coastal Water Temperatures

Place Temperature

Stations

Nearby Weather Stations

Station Location Temp. Windchill Dew Point Humidity Wind Precip. Elev Updated Type
                   

Watches & Warnings

There are currently no watches in effect.